Terminal Aerodrome Forecast
Issued by NWS North Platte, NE

Home | Current Version | Previous Version | Graphics & Text | Print | Product List | Glossary On
Versions: 1 2 3 4 5 6 7 8 9 10 11 12 13 14 15 16
000
FTUS43 KLBF 311125
TAFVTN
TAF
KVTN 311125Z 3112/0112 20012KT P6SM SCT100 BKN150
     FM311500 23012G22KT P6SM SCT120 BKN150
     FM311700 33014G22KT P6SM SCT120 BKN150
     FM312200 35010KT P6SM VCTS BKN120CB OVC150
     FM010300 VRB06KT P6SM BKN120=

USA.gov is the U.S. government's official web portal to all federal, state and local government web resources and services.